Meteo Giornale » Osservazioni meteo Germania » Hessen
ore: 18:50 - Osservazioni Meteo Hessen
Lat. 50° 42' N Lon. 8° 4' E Alt. 602 metri s.l.m.
14 °C
Poco Nuvoloso
Temp. 24 Ore
11 °C
19 °C
Ovest/Sud-Ovest
18.5 Km/h
Dew point 13 °C
Umidità 93 %
Visibilità 10 Km
Il sole sorge alle ore 06:40
Il sole tramonta alle ore 20:15
| Data e Ora | Cielo e Fenomeni | T °C | DP °C | Um. % | Pres. hPa | Vis. km | Vento km/h | |
|---|---|---|---|---|---|---|---|---|
| Oggi h: 18:50 | Poco Nuvoloso | 14 | 13 | 93 | 1015 | 10 | O/SO 18.5 | |
| Oggi h: 18:20 | Temporale nelle vicinanze | 14 | 13 | 93 | 1015 | 10 | O 22.2 | |
| Oggi h: 17:50 | Temporale | 12 | 12 | 100 | 1014 | 4 | O/NO 22.2 | |
| Oggi h: 17:20 | Temporale nelle vicinanze Foschia | 15 | 14 | 93 | 1014 | 4 | O/NO 16.7 | |
| Oggi h: 16:50 | Molto Nuvoloso | 14 | 13 | 93 | 1014 | 10 | S/SO 11.1 | |
| Oggi h: 16:20 | Temporale nelle vicinanze Foschia | 11 | 11 | 100 | 1014 | 3 | N 3.7 | |
| Oggi h: 15:50 | Pioggia nelle vicinanze | 18 | 11 | 63 | 1013 | 10 | SO 22.2 | |
| Oggi h: 15:20 | Molto Nuvoloso | 19 | 12 | 63 | 1014 | 10 | SO 25.9 | |
| Oggi h: 14:50 | Pioggia Foschia | 18 | 12 | 67 | 1014 | 4 | SO 25.9 | |
| Oggi h: 14:20 | Molto Nuvoloso | 18 | 12 | 67 | 1014 | 10 | SO 25.9 | |
| Oggi h: 13:50 | Molto Nuvoloso | 18 | 12 | 67 | 1014 | 10 | SO 22.2 | |
| Oggi h: 13:20 | Pioggia | 17 | 12 | 72 | 1014 | 10 | SO 27.8 | |
| Oggi h: 12:50 | Molto Nuvoloso | 16 | 12 | 77 | 1014 | 10 | SO 25.9 | |
| Oggi h: 12:20 | Nuvoloso | 17 | 12 | 72 | 1014 | 10 | SO 24 | |
| Oggi h: 11:50 | Nuvoloso | 17 | 13 | 77 | 1014 | 10 | SO 27.8 | |
| Oggi h: 11:20 | Molto Nuvoloso | 16 | 13 | 82 | 1014 | 10 | SO 25.9 | |
| Oggi h: 10:50 | Molto Nuvoloso | 16 | 13 | 82 | 1014 | 10 | SO 25.9 | |
| Oggi h: 10:20 | Molto Nuvoloso | 15 | 13 | 87 | 1014 | 10 | SO 25.9 | |
| Oggi h: 09:50 | Coperto | 15 | 14 | 93 | 1014 | 10 | SO 20.3 | |
| Oggi h: 09:20 | Molto Nuvoloso | 15 | 13 | 87 | 1013 | 10 | SO 22.2 | |
| Oggi h: 08:50 | Molto Nuvoloso | 15 | 14 | 93 | 1013 | 10 | SO 22.2 | |
| Oggi h: 08:20 | Molto Nuvoloso | 14 | 14 | 100 | 1013 | 10 | O/SO 20.3 | |
| Oggi h: 07:50 | Coperto | 14 | 14 | 100 | 1013 | 9 | O/SO 22.2 | |
| Oggi h: 07:20 | Molto Nuvoloso | 14 | 14 | 100 | 1013 | 0 | SO 20.3 | |
| Oggi h: 06:50 | Coperto | 14 | 14 | 100 | 1013 | 0 | SO 18.5 | |
| Oggi h: 06:20 | Coperto | 14 | 14 | 100 | 1013 | 0 | SO 16.7 | |
| Oggi h: 05:50 | Molto Nuvoloso | 14 | 14 | 100 | 1013 | 0 | SO 14.8 | |
| Oggi h: 05:20 | Molto Nuvoloso | 14 | 14 | 100 | 1013 | 0 | S/SO 20.3 | |
| Oggi h: 04:50 | Coperto | 14 | 14 | 100 | 1013 | 0 | S/SO 18.5 | |
| Oggi h: 04:20 | Coperto | 14 | 14 | 100 | 1013 | 0 | S/SO 18.5 | |
| Oggi h: 03:50 | Coperto | 14 | 14 | 100 | 1013 | 0 | S/SO 20.3 | |
| Oggi h: 03:20 | Coperto | 14 | 14 | 100 | 1013 | 0 | S 14.8 | |
| Oggi h: 02:50 | Coperto | 14 | 14 | 100 | 1013 | 0 | S/SO 16.7 | |
| Oggi h: 02:20 | Coperto | 16 | 12 | 77 | 1013 | 0 | S/SO 20.3 | |
| Oggi h: 01:50 | Coperto | 16 | 11 | 72 | 1014 | 0 | S/SO 14.8 | |
| Oggi h: 01:20 | Coperto | 16 | 11 | 72 | 1013 | 0 | S/SO 11.1 | |
| Oggi h: 00:50 | Coperto | 16 | 11 | 72 | 1014 | 0 | S 11.1 | |
| Oggi h: 00:20 | Coperto | 16 | 10 | 67 | 1014 | 0 | S 9.3 | |
| Ieri h: 23:50 | Molto Nuvoloso | 16 | 10 | 67 | 1014 | 0 | S 7.4 | |
| Ieri h: 23:20 | Nuvoloso | 16 | 10 | 67 | 1014 | 0 | SO 7.4 | |
| Ieri h: 22:50 | Nuvoloso | 17 | 10 | 63 | 1014 | 0 | O/SO 11.1 | |
| Ieri h: 22:20 | Poco Nuvoloso | 16 | 11 | 72 | 1014 | 0 | SO 11.1 | |
| Ieri h: 21:50 | Nuvoloso | 17 | 11 | 67 | 1014 | 0 | SO 11.1 | |
| Ieri h: 21:20 | Molto Nuvoloso | 17 | 11 | 67 | 1015 | 0 | S/SO 7.4 | |
| Ieri h: 20:50 | Molto Nuvoloso | 17 | 11 | 67 | 1015 | 0 | O/SO 7.4 | |
| Ieri h: 20:20 | Nuvoloso | 18 | 12 | 67 | 1015 | 0 | O/SO 7.4 | |
| Ieri h: 19:50 | Nuvoloso | 18 | 12 | 67 | 1014 | 10 | O/SO 7.4 | |



